createdAt,value
2019-03-22T00:01:34.025Z,28.70
2019-03-22T00:04:02.479Z,27.50
2019-03-22T00:06:30.925Z,28.15
2019-03-22T00:08:59.374Z,28.42
2019-03-22T00:11:27.829Z,31.05
2019-03-22T00:13:56.301Z,30.37
2019-03-22T00:16:24.757Z,32.55
2019-03-22T00:18:53.232Z,31.48
2019-03-22T00:21:21.691Z,29.75
2019-03-22T00:23:50.138Z,33.08
2019-03-22T00:26:18.605Z,30.43
2019-03-22T00:28:47.143Z,31.05
2019-03-22T00:31:15.586Z,30.25
2019-03-22T00:33:44.071Z,29.80
2019-03-22T00:36:12.584Z,27.85
2019-03-22T00:38:41.082Z,27.82
2019-03-22T00:41:09.550Z,27.55
2019-03-22T00:43:37.990Z,28.95
2019-03-22T00:46:06.475Z,31.40
2019-03-22T00:48:36.575Z,25.60
2019-03-22T00:51:05.036Z,27.53
2019-03-22T00:53:33.507Z,29.37
2019-03-22T00:56:01.959Z,30.73
2019-03-22T00:58:30.430Z,30.15
2019-03-22T01:00:58.872Z,27.27
2019-03-22T01:03:27.334Z,29.40
2019-03-22T01:05:56.718Z,29.95
2019-03-22T01:08:25.159Z,31.17
2019-03-22T01:10:53.618Z,31.17
2019-03-22T01:13:22.060Z,32.58
2019-03-22T01:15:50.561Z,35.63
2019-03-22T01:18:19.108Z,36.98
2019-03-22T01:20:47.559Z,37.30
2019-03-22T01:23:16.007Z,36.98
2019-03-22T01:25:44.478Z,36.10
2019-03-22T01:28:12.988Z,36.65
2019-03-22T01:30:41.455Z,37.00
2019-03-22T01:33:09.939Z,35.95
2019-03-22T01:35:38.378Z,34.83
2019-03-22T01:38:06.835Z,33.73
2019-03-22T01:40:35.447Z,34.88
2019-03-22T01:43:03.992Z,34.85
2019-03-22T01:45:32.473Z,33.48
2019-03-22T01:48:00.974Z,36.33
2019-03-22T01:50:29.434Z,36.88
2019-03-22T01:52:57.925Z,35.13
2019-03-22T01:55:26.374Z,34.53
2019-03-22T01:57:54.832Z,38.38
2019-03-22T02:00:23.299Z,34.38
2019-03-22T02:02:51.756Z,35.55
2019-03-22T02:05:20.231Z,33.80
2019-03-22T02:07:48.680Z,34.35
2019-03-22T02:10:17.765Z,37.78
2019-03-22T02:12:46.216Z,35.13
2019-03-22T02:15:18.053Z,34.75
2019-03-22T02:17:46.509Z,35.95
2019-03-22T02:20:15.804Z,34.60
2019-03-22T02:22:44.331Z,35.83
2019-03-22T02:25:13.228Z,35.48
2019-03-22T02:27:42.391Z,33.00
2019-03-22T02:30:13.857Z,35.10
2019-03-22T02:32:42.391Z,35.08
2019-03-22T02:35:26.898Z,35.03
2019-03-22T02:37:41.266Z,33.48
2019-03-22T02:40:11.844Z,31.17
2019-03-22T02:42:40.329Z,35.80
2019-03-22T02:45:11.704Z,35.45
2019-03-22T02:47:40.211Z,34.53
2019-03-22T02:50:18.161Z,35.20
2019-03-22T02:52:41.183Z,33.95
2019-03-22T02:55:11.356Z,32.75
2019-03-22T02:57:39.810Z,31.97
2019-03-22T03:00:13.744Z,33.08
2019-03-22T03:02:42.195Z,33.85
2019-03-22T03:05:11.296Z,35.00
2019-03-22T03:07:39.808Z,35.15
2019-03-22T03:10:13.843Z,33.95
2019-03-22T03:12:42.653Z,33.75
2019-03-22T03:15:14.177Z,31.15
2019-03-22T03:17:42.726Z,33.75
2019-03-22T03:20:19.037Z,33.33
2019-03-22T03:22:47.562Z,35.95
2019-03-22T03:25:16.179Z,36.42
2019-03-22T03:27:44.694Z,35.98
2019-03-22T03:30:19.110Z,35.95
2019-03-22T03:32:47.704Z,35.68
2019-03-22T03:35:16.389Z,35.68
2019-03-22T03:37:44.925Z,35.95
2019-03-22T03:40:14.315Z,38.60
2019-03-22T03:42:42.808Z,33.40
2019-03-22T03:45:16.969Z,36.30
2019-03-22T03:47:45.415Z,36.28
2019-03-22T03:50:13.944Z,37.30
2019-03-22T03:52:42.423Z,34.25
2019-03-22T03:55:11.008Z,37.13
2019-03-22T03:57:39.471Z,36.48
2019-03-22T04:00:08.375Z,35.35
2019-03-22T04:02:36.828Z,36.95
2019-03-22T04:05:06.138Z,35.78
2019-03-22T04:07:34.632Z,39.00
2019-03-22T04:10:04.717Z,40.43
2019-03-22T04:12:33.171Z,34.03
2019-03-22T04:15:02.312Z,34.40
2019-03-22T04:17:30.766Z,34.00
2019-03-22T04:19:59.224Z,34.10
2019-03-22T04:22:27.697Z,33.50
2019-03-22T04:24:56.164Z,33.30
2019-03-22T04:27:24.615Z,34.15
2019-03-22T04:29:53.163Z,35.15
2019-03-22T04:32:21.655Z,36.40
2019-03-22T04:34:50.185Z,38.85
2019-03-22T04:37:18.708Z,35.45
2019-03-22T04:39:47.167Z,34.75
2019-03-22T04:42:15.616Z,37.20
2019-03-22T04:44:44.084Z,36.98
2019-03-22T04:47:15.415Z,40.90
2019-03-22T04:49:45.170Z,36.48
2019-03-22T04:52:14.667Z,35.05
2019-03-22T04:54:45.918Z,33.40
2019-03-22T04:57:16.123Z,34.05
2019-03-22T04:59:47.198Z,31.17
2019-03-22T05:02:16.603Z,31.25
2019-03-22T05:04:47.883Z,30.70
2019-03-22T05:07:17.290Z,30.60
2019-03-22T05:09:46.582Z,30.55
2019-03-22T05:12:18.143Z,28.37
2019-03-22T05:14:47.324Z,33.30
2019-03-22T05:17:16.347Z,30.32
2019-03-22T05:19:50.837Z,28.65
2019-03-22T05:22:21.491Z,30.55
2019-03-22T05:24:51.279Z,28.55
2019-03-22T05:27:21.176Z,28.98
2019-03-22T05:29:51.425Z,29.55
2019-03-22T05:32:19.863Z,29.95
2019-03-22T05:34:48.326Z,29.20
2019-03-22T05:37:16.815Z,30.45
2019-03-22T05:39:45.340Z,29.80
2019-03-22T05:42:13.900Z,30.35
2019-03-22T05:44:42.415Z,29.52
2019-03-22T05:47:10.871Z,30.37
2019-03-22T05:49:39.315Z,30.90
2019-03-22T05:52:07.789Z,32.45
2019-03-22T05:54:36.242Z,32.80
2019-03-22T05:57:13.249Z,35.23
2019-03-22T05:59:42.325Z,34.53
2019-03-22T06:02:05.514Z,33.60
2019-03-22T06:04:33.976Z,32.98
2019-03-22T06:07:02.424Z,30.43
2019-03-22T06:09:30.903Z,32.67
2019-03-22T06:11:59.435Z,32.25
2019-03-22T06:14:27.888Z,32.90
2019-03-22T06:16:56.428Z,31.97
2019-03-22T06:19:24.962Z,32.48
2019-03-22T06:21:53.428Z,32.90
2019-03-22T06:24:22.399Z,31.93
2019-03-22T06:26:51.112Z,34.20
2019-03-22T06:29:19.565Z,34.23
2019-03-22T06:31:48.015Z,35.23
2019-03-22T06:34:16.472Z,33.80
2019-03-22T06:36:44.940Z,35.23
2019-03-22T06:39:13.395Z,34.08
2019-03-22T06:41:41.854Z,35.08
2019-03-22T06:44:10.347Z,33.15
2019-03-22T06:46:38.815Z,36.10
2019-03-22T06:49:07.270Z,37.20
2019-03-22T06:51:35.797Z,36.45
2019-03-22T06:54:04.336Z,36.68
2019-03-22T06:56:32.792Z,37.85
2019-03-22T06:59:01.256Z,38.90
2019-03-22T07:01:29.724Z,37.30
2019-03-22T07:03:58.180Z,38.48
2019-03-22T07:06:26.623Z,37.35
2019-03-22T07:08:55.128Z,36.42
2019-03-22T07:11:23.563Z,38.55
2019-03-22T07:13:52.016Z,37.05
2019-03-22T07:16:20.541Z,37.83
2019-03-22T07:18:48.995Z,36.65
2019-03-22T07:21:17.445Z,37.67
2019-03-22T07:23:45.907Z,35.60
2019-03-22T07:26:14.363Z,37.33
2019-03-22T07:28:42.850Z,39.67
2019-03-22T07:31:11.295Z,38.90
2019-03-22T07:33:39.828Z,38.70
2019-03-22T07:36:08.292Z,43.37
2019-03-22T07:38:36.756Z,40.73
2019-03-22T07:41:05.420Z,40.93
2019-03-22T07:43:33.862Z,43.48
2019-03-22T07:46:02.335Z,37.33
2019-03-22T07:48:30.784Z,43.78
2019-03-22T07:50:59.266Z,40.30
2019-03-22T07:53:27.900Z,43.85
2019-03-22T07:55:56.882Z,42.40
2019-03-22T07:58:25.411Z,42.62
2019-03-22T08:00:53.866Z,42.38
2019-03-22T08:03:22.343Z,41.63
2019-03-22T08:05:51.597Z,41.77
2019-03-22T08:08:20.440Z,43.10
2019-03-22T08:10:48.944Z,42.23
2019-03-22T08:13:17.478Z,43.15
2019-03-22T08:15:45.946Z,41.13
2019-03-22T08:18:14.427Z,40.73
2019-03-22T08:20:43.152Z,38.58
2019-03-22T08:23:22.025Z,41.80
2019-03-22T08:25:50.616Z,44.75
2019-03-22T08:28:19.092Z,42.85
2019-03-22T08:30:47.612Z,42.50
2019-03-22T08:33:16.136Z,46.33
2019-03-22T08:35:44.652Z,43.60
2019-03-22T08:38:13.114Z,40.43
2019-03-22T08:40:41.603Z,46.02
2019-03-22T08:43:10.100Z,41.55
2019-03-22T08:45:38.587Z,42.08
2019-03-22T08:48:07.046Z,44.03
2019-03-22T08:50:35.498Z,44.95
2019-03-22T08:53:04.023Z,47.65
2019-03-22T08:55:32.462Z,44.05
2019-03-22T08:58:00.923Z,44.40
2019-03-22T09:00:39.232Z,47.88
2019-03-22T09:05:27.291Z,45.03
2019-03-22T09:07:55.840Z,43.05
2019-03-22T09:10:24.471Z,46.37
2019-03-22T09:12:53.030Z,48.00
2019-03-22T09:15:21.538Z,47.13
2019-03-22T09:17:49.999Z,44.88
2019-03-22T09:20:18.480Z,44.70
2019-03-22T09:22:47.114Z,46.10
2019-03-22T09:25:15.661Z,40.35
2019-03-22T09:27:44.142Z,42.35
2019-03-22T09:30:14.355Z,39.60
2019-03-22T09:32:42.894Z,42.65
2019-03-22T09:35:11.484Z,43.00
2019-03-22T09:37:40.053Z,40.50
2019-03-22T09:40:08.835Z,36.85
2019-03-22T09:42:37.573Z,42.03
2019-03-22T09:45:08.081Z,42.38
2019-03-22T09:47:36.610Z,40.48
2019-03-22T09:50:10.880Z,39.63
2019-03-22T09:52:39.428Z,37.78
2019-03-22T09:55:13.976Z,44.18
2019-03-22T09:57:38.925Z,41.30
2019-03-22T10:00:10.815Z,41.35
2019-03-22T10:02:39.801Z,38.23
2019-03-22T10:05:08.415Z,43.68
2019-03-22T10:07:36.922Z,43.40
2019-03-22T10:10:06.468Z,41.23
2019-03-22T10:12:35.016Z,42.62
2019-03-22T10:15:05.077Z,40.48
2019-03-22T10:20:01.211Z,35.28
2019-03-22T10:22:29.724Z,39.95
2019-03-22T10:24:58.327Z,44.05
2019-03-22T10:27:26.807Z,46.70
2019-03-22T10:29:55.261Z,47.88
2019-03-22T10:32:24.073Z,43.78
2019-03-22T10:34:52.707Z,43.05
2019-03-22T10:37:40.568Z,43.87
2019-03-22T10:40:09.085Z,43.55
2019-03-22T10:42:37.555Z,44.60
2019-03-22T10:45:07.609Z,48.92
2019-03-22T10:47:36.174Z,48.02
2019-03-22T10:50:06.385Z,45.60
2019-03-22T10:52:34.893Z,48.40
2019-03-22T10:55:17.746Z,41.13
2019-03-22T10:57:34.196Z,49.60
2019-03-22T11:00:03.530Z,47.27
2019-03-22T11:02:31.977Z,46.00
2019-03-22T11:05:02.138Z,40.15
2019-03-22T11:09:59.137Z,47.30
2019-03-22T11:12:27.775Z,46.73
2019-03-22T11:14:56.268Z,50.60
2019-03-22T11:17:24.765Z,49.23
2019-03-22T11:19:53.216Z,51.53
2019-03-22T11:22:21.679Z,50.28
2019-03-22T11:24:50.153Z,46.70
2019-03-22T11:27:18.692Z,49.55
2019-03-22T11:29:47.215Z,51.18
2019-03-22T11:32:16.113Z,48.23
2019-03-22T11:34:45.026Z,48.30
2019-03-22T11:37:13.547Z,44.27
2019-03-22T11:39:42.120Z,45.30
2019-03-22T11:42:10.750Z,50.28
2019-03-22T11:44:39.229Z,48.73
2019-03-22T11:47:07.749Z,50.43
2019-03-22T11:49:36.199Z,47.83
2019-03-22T11:52:04.803Z,46.80
2019-03-22T11:54:33.255Z,48.95
2019-03-22T11:57:01.704Z,48.45
2019-03-22T11:59:30.152Z,46.53
2019-03-22T12:01:58.595Z,40.28
2019-03-22T12:04:27.056Z,43.85
2019-03-22T12:06:55.515Z,43.13
2019-03-22T12:09:24.002Z,47.30
2019-03-22T12:11:52.448Z,43.73
2019-03-22T12:14:20.922Z,41.85
2019-03-22T12:16:49.371Z,43.28
2019-03-22T12:19:17.858Z,45.45
2019-03-22T12:21:46.323Z,44.25
2019-03-22T12:24:14.776Z,44.20
2019-03-22T12:26:43.227Z,44.48
2019-03-22T12:29:11.680Z,42.27
2019-03-22T12:31:40.143Z,41.37
2019-03-22T12:34:08.609Z,38.42
2019-03-22T12:36:37.099Z,41.95
2019-03-22T12:39:07.691Z,43.45
2019-03-22T12:41:36.139Z,40.58
2019-03-22T12:44:04.699Z,42.08
2019-03-22T12:46:33.150Z,41.25
2019-03-22T12:49:01.603Z,41.55
2019-03-22T12:51:30.082Z,41.05
2019-03-22T12:54:00.634Z,46.15
2019-03-22T12:56:29.156Z,40.88
2019-03-22T12:58:57.631Z,40.78
2019-03-22T13:01:26.080Z,39.75
2019-03-22T13:03:54.598Z,39.13
2019-03-22T13:06:23.043Z,38.95
2019-03-22T13:08:51.500Z,42.83
2019-03-22T13:11:19.991Z,42.00
2019-03-22T13:13:48.466Z,43.42
2019-03-22T13:16:16.907Z,40.98
2019-03-22T13:18:50.118Z,40.33
2019-03-22T13:23:43.308Z,34.60
2019-03-22T13:26:11.831Z,41.80
2019-03-22T13:28:40.308Z,40.23
2019-03-22T13:31:08.770Z,45.03
2019-03-22T13:33:37.238Z,45.35
2019-03-22T13:36:06.759Z,42.63
2019-03-22T13:38:35.203Z,39.30
2019-03-22T13:41:03.741Z,46.10
2019-03-22T13:43:32.190Z,41.77
2019-03-22T13:46:00.652Z,43.23
2019-03-22T13:48:29.237Z,42.30
2019-03-22T13:50:57.715Z,39.90
2019-03-22T13:53:26.164Z,42.25
2019-03-22T13:55:54.641Z,46.33
2019-03-22T13:58:23.145Z,42.17
2019-03-22T14:00:51.699Z,40.95
2019-03-22T14:03:20.150Z,40.17
2019-03-22T14:05:48.604Z,40.50
2019-03-22T14:08:17.074Z,41.23
2019-03-22T14:10:45.517Z,39.03
2019-03-22T14:13:14.054Z,42.15
2019-03-22T14:15:42.688Z,43.10
2019-03-22T14:18:11.175Z,41.00
2019-03-22T14:20:39.627Z,41.55
2019-03-22T14:23:08.110Z,40.92
2019-03-22T14:25:36.558Z,41.33
2019-03-22T14:28:05.035Z,41.58
2019-03-22T14:30:33.522Z,41.88
2019-03-22T14:33:02.039Z,39.88
2019-03-22T14:35:30.545Z,43.30
2019-03-22T14:37:59.019Z,40.35
2019-03-22T14:40:27.480Z,38.95
2019-03-22T14:42:55.936Z,41.98
2019-03-22T14:45:24.389Z,41.40
2019-03-22T14:47:52.846Z,40.45
2019-03-22T14:50:21.302Z,38.70
2019-03-22T14:52:49.806Z,36.17
2019-03-22T14:55:18.251Z,41.30
2019-03-22T14:57:50.156Z,41.63
2019-03-22T15:02:44.611Z,38.30
2019-03-22T15:05:13.208Z,37.58
2019-03-22T15:07:41.651Z,36.73
2019-03-22T15:10:11.955Z,40.10
2019-03-22T15:12:40.402Z,40.25
2019-03-22T15:15:21.327Z,35.17
2019-03-22T15:18:07.942Z,39.83
2019-03-22T15:20:43.973Z,38.58
2019-03-22T15:23:30.475Z,40.33
2019-03-22T15:26:03.559Z,39.63
2019-03-22T15:28:49.842Z,40.70
2019-03-22T15:31:36.353Z,38.85
2019-03-22T15:34:06.535Z,37.45
2019-03-22T15:39:34.621Z,36.95
2019-03-22T15:42:03.211Z,40.50
2019-03-22T15:44:31.673Z,43.73
2019-03-22T15:47:00.171Z,37.23
2019-03-22T15:49:28.656Z,37.53
2019-03-22T15:51:57.133Z,38.65
2019-03-22T15:54:25.611Z,38.15
2019-03-22T15:56:54.132Z,40.78
2019-03-22T15:59:42.002Z,39.67
2019-03-22T16:02:10.439Z,39.00
2019-03-22T16:04:38.959Z,38.75
2019-03-22T16:07:07.408Z,42.38
2019-03-22T16:09:35.878Z,39.30
2019-03-22T16:12:04.401Z,37.23
2019-03-22T16:14:32.881Z,40.78
2019-03-22T16:17:01.389Z,41.28
2019-03-22T16:19:29.874Z,42.60
2019-03-22T16:21:58.351Z,41.42
2019-03-22T16:24:26.804Z,39.23
2019-03-22T16:26:55.339Z,41.68
2019-03-22T16:29:23.866Z,39.65
2019-03-22T16:31:52.370Z,41.83
2019-03-22T16:34:20.823Z,38.63
2019-03-22T16:36:49.277Z,41.08
2019-03-22T16:39:17.732Z,42.03
2019-03-22T16:41:46.218Z,42.95
2019-03-22T16:44:14.741Z,40.30
2019-03-22T16:46:43.259Z,44.33
2019-03-22T16:49:11.710Z,41.20
2019-03-22T16:51:40.172Z,45.23
2019-03-22T16:54:08.622Z,43.42
2019-03-22T16:56:37.083Z,43.42
2019-03-22T16:59:05.535Z,44.20
2019-03-22T17:01:33.993Z,43.85
2019-03-22T17:04:04.567Z,41.10
2019-03-22T17:06:32.654Z,44.18
2019-03-22T17:09:02.210Z,44.27
2019-03-22T17:11:30.735Z,40.70
2019-03-22T17:13:59.183Z,42.05
2019-03-22T17:16:27.714Z,41.98
2019-03-22T17:18:56.176Z,41.83
2019-03-22T17:21:24.891Z,44.77
2019-03-22T17:23:53.368Z,41.85
2019-03-22T17:26:21.815Z,41.83
2019-03-22T17:28:50.287Z,39.13
2019-03-22T17:31:18.767Z,43.58
2019-03-22T17:33:47.341Z,44.10
2019-03-22T17:36:15.875Z,42.17
2019-03-22T17:38:44.407Z,41.05
2019-03-22T17:41:12.871Z,45.57
2019-03-22T17:43:41.417Z,42.15
2019-03-22T17:46:09.879Z,44.13
2019-03-22T17:48:38.331Z,45.30
2019-03-22T17:51:06.808Z,44.20
2019-03-22T17:53:35.254Z,45.35
2019-03-22T17:56:03.725Z,45.67
2019-03-22T17:58:32.184Z,43.35
2019-03-22T18:01:00.629Z,42.00
2019-03-22T18:03:29.086Z,44.83
2019-03-22T18:05:57.741Z,44.18
2019-03-22T18:08:26.188Z,46.18
2019-03-22T18:10:54.631Z,46.55
2019-03-22T18:13:23.099Z,44.73
2019-03-22T18:15:51.543Z,44.70
2019-03-22T18:18:20.041Z,44.15
2019-03-22T18:20:48.535Z,45.45
2019-03-22T18:23:16.990Z,44.88
2019-03-22T18:25:45.457Z,44.18
2019-03-22T18:28:13.892Z,43.60
2019-03-22T18:30:42.390Z,43.95
2019-03-22T18:33:10.831Z,44.18
2019-03-22T18:35:39.291Z,44.35
2019-03-22T18:38:07.774Z,45.63
2019-03-22T18:40:36.246Z,44.33
2019-03-22T18:43:04.699Z,44.55
2019-03-22T18:45:33.148Z,43.08
2019-03-22T18:48:01.724Z,47.98
2019-03-22T18:50:30.188Z,41.80
2019-03-22T18:52:58.666Z,44.95
2019-03-22T18:55:27.111Z,44.42
2019-03-22T18:57:55.596Z,43.05
2019-03-22T19:00:24.189Z,46.45
2019-03-22T19:02:52.702Z,47.43
2019-03-22T19:05:21.159Z,46.20
2019-03-22T19:07:49.621Z,43.98
2019-03-22T19:10:18.091Z,45.03
2019-03-22T19:12:46.571Z,47.65
2019-03-22T19:15:15.425Z,46.68
2019-03-22T19:17:43.877Z,44.23
2019-03-22T19:20:14.200Z,43.40
2019-03-22T19:22:42.796Z,45.05
2019-03-22T19:25:14.388Z,45.30
2019-03-22T19:27:43.119Z,46.60
2019-03-22T19:30:14.296Z,43.98
2019-03-22T19:32:42.846Z,47.43
2019-03-22T19:35:11.660Z,47.08
2019-03-22T19:37:40.217Z,47.43
2019-03-22T19:40:10.599Z,45.45
2019-03-22T19:42:39.046Z,45.55
2019-03-22T19:45:09.647Z,47.93
2019-03-22T19:47:38.113Z,49.05
2019-03-22T19:50:09.163Z,48.13
2019-03-22T19:52:37.660Z,46.23
2019-03-22T19:55:09.162Z,46.37
2019-03-22T19:57:38.083Z,47.60
2019-03-22T20:00:15.086Z,51.15
2019-03-22T20:02:43.527Z,43.68
2019-03-22T20:05:13.602Z,50.58
2019-03-22T20:10:11.857Z,51.23
2019-03-22T20:12:40.578Z,49.10
2019-03-22T20:15:10.427Z,47.80
2019-03-22T20:17:38.923Z,49.00
2019-03-22T20:20:09.050Z,51.55
2019-03-22T20:22:37.544Z,50.08
2019-03-22T20:25:08.011Z,48.75
2019-03-22T20:30:06.265Z,48.70
2019-03-22T20:32:34.856Z,46.80
2019-03-22T20:35:15.329Z,51.42
2019-03-22T20:37:35.027Z,48.58
2019-03-22T20:40:05.828Z,50.03
2019-03-22T20:42:34.282Z,48.52
2019-03-22T20:45:02.734Z,48.02
2019-03-22T20:47:31.199Z,49.80
2019-03-22T20:49:59.661Z,52.53
2019-03-22T20:52:28.128Z,52.75
2019-03-22T20:54:56.571Z,51.37
2019-03-22T20:57:25.039Z,52.90
2019-03-22T20:59:53.490Z,51.33
2019-03-22T21:02:22.036Z,52.00
2019-03-22T21:04:50.495Z,52.98
2019-03-22T21:07:19.001Z,51.15
2019-03-22T21:09:47.610Z,55.95
2019-03-22T21:12:16.131Z,52.43
2019-03-22T21:14:44.615Z,52.53
2019-03-22T21:17:13.072Z,52.98
2019-03-22T21:19:41.524Z,50.85
2019-03-22T21:22:09.987Z,48.75
2019-03-22T21:24:39.227Z,53.15
2019-03-22T21:27:15.421Z,50.23
2019-03-22T21:29:43.952Z,49.13
2019-03-22T21:32:08.065Z,53.15
2019-03-22T21:34:36.516Z,52.83
2019-03-22T21:37:05.012Z,48.83
2019-03-22T21:39:33.494Z,48.50
2019-03-22T21:42:01.948Z,52.83
2019-03-22T21:44:30.429Z,52.38
2019-03-22T21:46:58.922Z,51.15
2019-03-22T21:49:29.851Z,47.30
2019-03-22T21:51:57.672Z,50.08
2019-03-22T21:54:26.202Z,53.28
2019-03-22T21:56:54.686Z,48.02
2019-03-22T21:59:23.218Z,52.98
2019-03-22T22:01:51.681Z,51.85
2019-03-22T22:04:20.132Z,52.50
2019-03-22T22:06:48.599Z,52.25
2019-03-22T22:09:17.056Z,56.35
2019-03-22T22:11:45.545Z,54.05
2019-03-22T22:14:13.987Z,53.10
2019-03-22T22:16:42.445Z,52.70
2019-03-22T22:19:10.899Z,52.50
2019-03-22T22:21:39.347Z,49.83
2019-03-22T22:24:07.803Z,52.43
2019-03-22T22:26:36.274Z,53.00
2019-03-22T22:29:04.743Z,49.35
2019-03-22T22:31:33.231Z,54.63
2019-03-22T22:34:01.696Z,48.42
2019-03-22T22:36:30.152Z,54.18
2019-03-22T22:38:58.606Z,52.43
2019-03-22T22:41:27.103Z,51.50
2019-03-22T22:43:55.638Z,51.65
2019-03-22T22:46:24.151Z,51.65
2019-03-22T22:48:52.675Z,50.73
2019-03-22T22:51:21.145Z,55.52
2019-03-22T22:53:49.607Z,54.83
2019-03-22T22:56:18.071Z,54.13
2019-03-22T22:58:46.531Z,53.17
2019-03-22T23:01:14.987Z,50.73
2019-03-22T23:03:43.447Z,52.80
2019-03-22T23:06:11.908Z,49.80
2019-03-22T23:08:40.358Z,50.85
2019-03-22T23:11:08.875Z,48.60
2019-03-22T23:13:37.403Z,52.70
2019-03-22T23:16:05.901Z,50.57
2019-03-22T23:18:34.435Z,47.98
2019-03-22T23:21:02.900Z,49.27
2019-03-22T23:23:31.355Z,49.27
2019-03-22T23:25:59.850Z,47.83
2019-03-22T23:28:28.536Z,51.55
2019-03-22T23:30:57.829Z,49.94
2019-03-22T23:33:26.542Z,49.25
2019-03-22T23:35:55.037Z,51.58
2019-03-22T23:38:23.522Z,51.55
2019-03-22T23:40:51.972Z,50.08
2019-03-22T23:43:20.463Z,52.38
2019-03-22T23:45:49.060Z,51.80
2019-03-22T23:48:17.526Z,51.15
2019-03-22T23:50:46.009Z,52.13
2019-03-22T23:53:14.506Z,52.62
2019-03-22T23:55:43.018Z,50.12
2019-03-22T23:58:11.535Z,49.45
